sensor_id;sensor_type;location;lat;lon;timestamp;temperature;humidity
18575;DHT22;9417;16.484;102.872;2023-05-07T00:02:10;32.70;58.80
18575;DHT22;9417;16.484;102.872;2023-05-07T00:04:17;32.60;58.70
18575;DHT22;9417;16.484;102.872;2023-05-07T00:06:25;32.60;58.50
18575;DHT22;9417;16.484;102.872;2023-05-07T00:08:35;32.70;58.60
18575;DHT22;9417;16.484;102.872;2023-05-07T00:10:43;32.70;58.60
18575;DHT22;9417;16.484;102.872;2023-05-07T00:12:57;32.70;58.50
18575;DHT22;9417;16.484;102.872;2023-05-07T00:15:06;32.70;58.30
18575;DHT22;9417;16.484;102.872;2023-05-07T00:17:13;32.80;58.30
18575;DHT22;9417;16.484;102.872;2023-05-07T00:19:21;32.80;58.30
18575;DHT22;9417;16.484;102.872;2023-05-07T00:21:28;32.80;58.00
18575;DHT22;9417;16.484;102.872;2023-05-07T00:23:36;32.80;57.90
18575;DHT22;9417;16.484;102.872;2023-05-07T00:25:44;32.90;57.80
18575;DHT22;9417;16.484;102.872;2023-05-07T00:27:51;32.90;57.80
18575;DHT22;9417;16.484;102.872;2023-05-07T00:29:58;33.00;57.80
18575;DHT22;9417;16.484;102.872;2023-05-07T00:32:19;33.00;57.70
18575;DHT22;9417;16.484;102.872;2023-05-07T00:34:26;33.10;57.50
18575;DHT22;9417;16.484;102.872;2023-05-07T00:36:34;33.10;57.60
18575;DHT22;9417;16.484;102.872;2023-05-07T00:38:43;33.10;57.50
18575;DHT22;9417;16.484;102.872;2023-05-07T00:40:50;33.20;57.30
18575;DHT22;9417;16.484;102.872;2023-05-07T00:42:58;33.20;57.10
18575;DHT22;9417;16.484;102.872;2023-05-07T00:45:05;33.30;57.10
18575;DHT22;9417;16.484;102.872;2023-05-07T00:47:14;33.30;57.00
18575;DHT22;9417;16.484;102.872;2023-05-07T00:49:21;33.40;57.00
18575;DHT22;9417;16.484;102.872;2023-05-07T00:51:29;33.40;56.80
18575;DHT22;9417;16.484;102.872;2023-05-07T00:53:42;33.40;56.70
18575;DHT22;9417;16.484;102.872;2023-05-07T00:55:49;33.50;56.50
18575;DHT22;9417;16.484;102.872;2023-05-07T00:57:57;33.60;56.60
18575;DHT22;9417;16.484;102.872;2023-05-07T01:00:05;33.60;56.50
18575;DHT22;9417;16.484;102.872;2023-05-07T01:02:14;33.60;56.50
18575;DHT22;9417;16.484;102.872;2023-05-07T01:04:22;33.60;56.60
18575;DHT22;9417;16.484;102.872;2023-05-07T01:06:30;33.80;56.50
18575;DHT22;9417;16.484;102.872;2023-05-07T01:08:41;33.80;56.50
18575;DHT22;9417;16.484;102.872;2023-05-07T01:10:48;33.80;56.20
18575;DHT22;9417;16.484;102.872;2023-05-07T01:12:56;33.90;56.00
18575;DHT22;9417;16.484;102.872;2023-05-07T01:15:04;33.90;55.70
18575;DHT22;9417;16.484;102.872;2023-05-07T01:17:12;34.00;55.30
18575;DHT22;9417;16.484;102.872;2023-05-07T01:19:23;34.00;55.00
18575;DHT22;9417;16.484;102.872;2023-05-07T01:21:32;34.10;54.90
18575;DHT22;9417;16.484;102.872;2023-05-07T01:23:43;34.20;54.90
18575;DHT22;9417;16.484;102.872;2023-05-07T01:25:53;34.20;54.90
18575;DHT22;9417;16.484;102.872;2023-05-07T01:28:03;34.30;54.40
18575;DHT22;9417;16.484;102.872;2023-05-07T01:30:13;34.30;54.30
18575;DHT22;9417;16.484;102.872;2023-05-07T01:32:23;34.40;54.30
18575;DHT22;9417;16.484;102.872;2023-05-07T01:34:36;34.40;54.40
18575;DHT22;9417;16.484;102.872;2023-05-07T01:36:43;34.50;55.00
18575;DHT22;9417;16.484;102.872;2023-05-07T01:38:53;34.60;54.50
18575;DHT22;9417;16.484;102.872;2023-05-07T01:41:03;34.60;53.70
18575;DHT22;9417;16.484;102.872;2023-05-07T01:43:11;34.70;53.50
18575;DHT22;9417;16.484;102.872;2023-05-07T01:45:33;34.80;53.20
18575;DHT22;9417;16.484;102.872;2023-05-07T01:48:15;34.80;53.20
18575;DHT22;9417;16.484;102.872;2023-05-07T01:50:22;34.90;52.90
18575;DHT22;9417;16.484;102.872;2023-05-07T01:52:30;35.10;52.60
18575;DHT22;9417;16.484;102.872;2023-05-07T01:54:39;35.00;52.50
18575;DHT22;9417;16.484;102.872;2023-05-07T01:56:47;35.10;52.30
18575;DHT22;9417;16.484;102.872;2023-05-07T01:58:54;35.20;52.20
18575;DHT22;9417;16.484;102.872;2023-05-07T02:01:02;35.20;52.10
18575;DHT22;9417;16.484;102.872;2023-05-07T02:03:16;35.30;51.70
18575;DHT22;9417;16.484;102.872;2023-05-07T02:05:45;35.40;51.30
18575;DHT22;9417;16.484;102.872;2023-05-07T02:08:04;35.40;50.80
18575;DHT22;9417;16.484;102.872;2023-05-07T02:10:13;35.50;50.90
18575;DHT22;9417;16.484;102.872;2023-05-07T02:12:20;35.60;50.20
18575;DHT22;9417;16.484;102.872;2023-05-07T02:14:28;35.70;49.80
18575;DHT22;9417;16.484;102.872;2023-05-07T02:16:39;35.80;49.90
18575;DHT22;9417;16.484;102.872;2023-05-07T02:18:48;35.80;49.80
18575;DHT22;9417;16.484;102.872;2023-05-07T02:20:55;35.90;49.80
18575;DHT22;9417;16.484;102.872;2023-05-07T02:23:02;36.00;49.80
18575;DHT22;9417;16.484;102.872;2023-05-07T02:25:11;36.10;49.50
18575;DHT22;9417;16.484;102.872;2023-05-07T02:27:19;36.10;49.30
18575;DHT22;9417;16.484;102.872;2023-05-07T02:29:26;36.20;48.70
18575;DHT22;9417;16.484;102.872;2023-05-07T02:31:33;36.20;48.70
18575;DHT22;9417;16.484;102.872;2023-05-07T02:33:40;36.30;48.70
18575;DHT22;9417;16.484;102.872;2023-05-07T02:35:47;36.40;48.70
18575;DHT22;9417;16.484;102.872;2023-05-07T02:37:54;36.50;48.80
18575;DHT22;9417;16.484;102.872;2023-05-07T02:40:01;36.60;48.80
18575;DHT22;9417;16.484;102.872;2023-05-07T02:42:11;36.70;48.30
18575;DHT22;9417;16.484;102.872;2023-05-07T02:44:18;36.70;48.30
18575;DHT22;9417;16.484;102.872;2023-05-07T02:46:27;36.80;47.80
18575;DHT22;9417;16.484;102.872;2023-05-07T02:48:39;36.80;47.50
18575;DHT22;9417;16.484;102.872;2023-05-07T02:50:47;36.90;47.80
18575;DHT22;9417;16.484;102.872;2023-05-07T02:52:55;37.00;47.50
18575;DHT22;9417;16.484;102.872;2023-05-07T02:55:02;37.00;47.10
18575;DHT22;9417;16.484;102.872;2023-05-07T02:57:11;37.10;47.00
18575;DHT22;9417;16.484;102.872;2023-05-07T02:59:18;37.20;46.70
18575;DHT22;9417;16.484;102.872;2023-05-07T03:01:25;37.20;46.40
18575;DHT22;9417;16.484;102.872;2023-05-07T03:04:00;37.30;46.30
18575;DHT22;9417;16.484;102.872;2023-05-07T03:06:08;37.40;46.10
18575;DHT22;9417;16.484;102.872;2023-05-07T03:08:15;37.50;46.50
18575;DHT22;9417;16.484;102.872;2023-05-07T03:10:22;37.60;46.40
18575;DHT22;9417;16.484;102.872;2023-05-07T03:12:31;37.60;46.00
18575;DHT22;9417;16.484;102.872;2023-05-07T03:14:38;37.70;45.80
18575;DHT22;9417;16.484;102.872;2023-05-07T03:16:45;37.70;45.40
18575;DHT22;9417;16.484;102.872;2023-05-07T03:18:52;37.80;45.50
18575;DHT22;9417;16.484;102.872;2023-05-07T03:20:59;37.80;45.10
18575;DHT22;9417;16.484;102.872;2023-05-07T03:23:07;37.90;44.90
18575;DHT22;9417;16.484;102.872;2023-05-07T03:25:14;38.00;44.80
18575;DHT22;9417;16.484;102.872;2023-05-07T03:27:21;38.00;44.80
18575;DHT22;9417;16.484;102.872;2023-05-07T03:29:32;38.10;44.90
18575;DHT22;9417;16.484;102.872;2023-05-07T03:31:38;38.10;45.20
18575;DHT22;9417;16.484;102.872;2023-05-07T03:33:54;38.20;45.30
18575;DHT22;9417;16.484;102.872;2023-05-07T03:36:02;38.20;43.70
18575;DHT22;9417;16.484;102.872;2023-05-07T03:38:09;38.30;44.20
18575;DHT22;9417;16.484;102.872;2023-05-07T03:40:17;38.40;44.00
18575;DHT22;9417;16.484;102.872;2023-05-07T03:42:29;38.40;43.80
18575;DHT22;9417;16.484;102.872;2023-05-07T03:44:37;38.50;43.40
18575;DHT22;9417;16.484;102.872;2023-05-07T03:46:45;38.50;42.80
18575;DHT22;9417;16.484;102.872;2023-05-07T03:48:54;38.50;43.40
18575;DHT22;9417;16.484;102.872;2023-05-07T03:51:14;38.50;43.30
18575;DHT22;9417;16.484;102.872;2023-05-07T03:53:22;38.50;43.10
18575;DHT22;9417;16.484;102.872;2023-05-07T03:55:29;38.50;43.70
18575;DHT22;9417;16.484;102.872;2023-05-07T03:57:36;38.50;43.90
18575;DHT22;9417;16.484;102.872;2023-05-07T03:59:45;38.60;44.30
18575;DHT22;9417;16.484;102.872;2023-05-07T04:01:52;38.60;44.20
18575;DHT22;9417;16.484;102.872;2023-05-07T04:04:01;38.70;43.80
18575;DHT22;9417;16.484;102.872;2023-05-07T04:06:11;38.70;43.50
18575;DHT22;9417;16.484;102.872;2023-05-07T04:08:21;38.80;43.60
18575;DHT22;9417;16.484;102.872;2023-05-07T04:10:30;38.80;42.90
18575;DHT22;9417;16.484;102.872;2023-05-07T04:12:42;38.90;43.00
18575;DHT22;9417;16.484;102.872;2023-05-07T04:14:56;38.90;43.20
18575;DHT22;9417;16.484;102.872;2023-05-07T04:17:03;39.00;42.80
18575;DHT22;9417;16.484;102.872;2023-05-07T04:19:10;39.00;42.40
18575;DHT22;9417;16.484;102.872;2023-05-07T04:21:18;39.10;41.70
18575;DHT22;9417;16.484;102.872;2023-05-07T04:23:27;39.20;41.40
18575;DHT22;9417;16.484;102.872;2023-05-07T04:25:38;39.20;41.10
18575;DHT22;9417;16.484;102.872;2023-05-07T04:28:08;39.20;41.00
18575;DHT22;9417;16.484;102.872;2023-05-07T04:30:18;39.30;41.60
18575;DHT22;9417;16.484;102.872;2023-05-07T04:32:25;39.40;41.80
18575;DHT22;9417;16.484;102.872;2023-05-07T04:34:34;39.40;41.90
18575;DHT22;9417;16.484;102.872;2023-05-07T04:36:43;39.50;41.60
18575;DHT22;9417;16.484;102.872;2023-05-07T04:38:51;39.50;40.90
18575;DHT22;9417;16.484;102.872;2023-05-07T04:41:02;39.70;40.80
18575;DHT22;9417;16.484;102.872;2023-05-07T04:43:13;39.60;40.30
18575;DHT22;9417;16.484;102.872;2023-05-07T04:45:27;39.70;40.40
18575;DHT22;9417;16.484;102.872;2023-05-07T04:47:35;39.80;40.70
18575;DHT22;9417;16.484;102.872;2023-05-07T04:49:42;39.80;40.90
18575;DHT22;9417;16.484;102.872;2023-05-07T04:51:49;39.90;40.40
18575;DHT22;9417;16.484;102.872;2023-05-07T04:53:59;39.90;40.70
18575;DHT22;9417;16.484;102.872;2023-05-07T04:56:07;40.00;40.50
18575;DHT22;9417;16.484;102.872;2023-05-07T04:58:17;40.00;39.70
18575;DHT22;9417;16.484;102.872;2023-05-07T05:00:26;40.10;40.60
18575;DHT22;9417;16.484;102.872;2023-05-07T05:02:36;40.10;40.20
18575;DHT22;9417;16.484;102.872;2023-05-07T05:04:46;40.10;39.80
18575;DHT22;9417;16.484;102.872;2023-05-07T05:06:54;40.20;39.90
18575;DHT22;9417;16.484;102.872;2023-05-07T05:09:01;40.30;40.00
18575;DHT22;9417;16.484;102.872;2023-05-07T05:11:10;40.30;39.70
18575;DHT22;9417;16.484;102.872;2023-05-07T05:13:17;40.30;39.00
18575;DHT22;9417;16.484;102.872;2023-05-07T05:15:26;40.30;38.80
18575;DHT22;9417;16.484;102.872;2023-05-07T05:17:37;40.40;39.00
18575;DHT22;9417;16.484;102.872;2023-05-07T05:19:44;40.40;39.30
18575;DHT22;9417;16.484;102.872;2023-05-07T05:21:52;40.30;39.50
18575;DHT22;9417;16.484;102.872;2023-05-07T05:23:59;40.20;39.10
18575;DHT22;9417;16.484;102.872;2023-05-07T05:26:06;40.10;39.30
18575;DHT22;9417;16.484;102.872;2023-05-07T05:28:14;40.10;39.50
18575;DHT22;9417;16.484;102.872;2023-05-07T05:30:23;40.20;39.30
18575;DHT22;9417;16.484;102.872;2023-05-07T05:32:32;40.30;39.10
18575;DHT22;9417;16.484;102.872;2023-05-07T05:34:39;40.40;38.90
18575;DHT22;9417;16.484;102.872;2023-05-07T05:37:00;40.60;38.10
18575;DHT22;9417;16.484;102.872;2023-05-07T05:39:08;40.60;38.20
18575;DHT22;9417;16.484;102.872;2023-05-07T05:41:15;40.70;38.40
18575;DHT22;9417;16.484;102.872;2023-05-07T05:43:22;40.70;39.40
18575;DHT22;9417;16.484;102.872;2023-05-07T05:45:30;40.80;39.40
18575;DHT22;9417;16.484;102.872;2023-05-07T05:47:45;40.80;38.50
18575;DHT22;9417;16.484;102.872;2023-05-07T05:49:52;40.80;37.90
18575;DHT22;9417;16.484;102.872;2023-05-07T05:51:59;40.90;38.00
18575;DHT22;9417;16.484;102.872;2023-05-07T05:54:07;40.90;38.20
18575;DHT22;9417;16.484;102.872;2023-05-07T05:56:14;40.90;38.40
18575;DHT22;9417;16.484;102.872;2023-05-07T05:58:21;41.00;38.50
18575;DHT22;9417;16.484;102.872;2023-05-07T06:00:33;41.10;38.00
18575;DHT22;9417;16.484;102.872;2023-05-07T06:02:43;41.10;37.80
18575;DHT22;9417;16.484;102.872;2023-05-07T06:04:56;41.20;37.50
18575;DHT22;9417;16.484;102.872;2023-05-07T06:07:03;41.20;37.40
18575;DHT22;9417;16.484;102.872;2023-05-07T06:09:10;41.30;36.70
18575;DHT22;9417;16.484;102.872;2023-05-07T06:11:20;41.30;36.80
18575;DHT22;9417;16.484;102.872;2023-05-07T06:13:27;41.40;36.40
18575;DHT22;9417;16.484;102.872;2023-05-07T06:15:34;41.40;36.80
18575;DHT22;9417;16.484;102.872;2023-05-07T06:17:46;41.50;36.30
18575;DHT22;9417;16.484;102.872;2023-05-07T06:19:54;41.60;35.50
18575;DHT22;9417;16.484;102.872;2023-05-07T06:22:01;41.60;35.70
18575;DHT22;9417;16.484;102.872;2023-05-07T06:24:10;41.60;35.80
18575;DHT22;9417;16.484;102.872;2023-05-07T06:26:16;41.60;36.00
18575;DHT22;9417;16.484;102.872;2023-05-07T06:28:24;41.60;36.20
18575;DHT22;9417;16.484;102.872;2023-05-07T06:30:32;41.60;36.70
18575;DHT22;9417;16.484;102.872;2023-05-07T06:32:41;41.60;35.80
18575;DHT22;9417;16.484;102.872;2023-05-07T06:34:51;41.60;35.40
18575;DHT22;9417;16.484;102.872;2023-05-07T06:36:58;41.50;36.30
18575;DHT22;9417;16.484;102.872;2023-05-07T06:39:18;41.40;36.70
18575;DHT22;9417;16.484;102.872;2023-05-07T06:41:28;41.30;36.60
18575;DHT22;9417;16.484;102.872;2023-05-07T06:43:42;41.30;36.30
18575;DHT22;9417;16.484;102.872;2023-05-07T06:46:08;41.30;36.80
18575;DHT22;9417;16.484;102.872;2023-05-07T06:48:15;41.30;36.50
18575;DHT22;9417;16.484;102.872;2023-05-07T06:50:32;41.30;36.40
18575;DHT22;9417;16.484;102.872;2023-05-07T06:52:39;41.30;36.20
18575;DHT22;9417;16.484;102.872;2023-05-07T06:54:46;41.40;36.70
18575;DHT22;9417;16.484;102.872;2023-05-07T06:56:56;41.40;37.40
18575;DHT22;9417;16.484;102.872;2023-05-07T06:59:04;41.50;37.90
18575;DHT22;9417;16.484;102.872;2023-05-07T07:01:15;41.50;37.90
18575;DHT22;9417;16.484;102.872;2023-05-07T07:03:22;41.50;37.90
18575;DHT22;9417;16.484;102.872;2023-05-07T07:05:33;41.60;38.40
18575;DHT22;9417;16.484;102.872;2023-05-07T07:07:43;41.60;38.50
18575;DHT22;9417;16.484;102.872;2023-05-07T07:09:58;41.70;38.30
18575;DHT22;9417;16.484;102.872;2023-05-07T07:12:05;41.70;38.20
18575;DHT22;9417;16.484;102.872;2023-05-07T07:14:21;41.70;38.30
18575;DHT22;9417;16.484;102.872;2023-05-07T07:16:30;41.70;38.30
18575;DHT22;9417;16.484;102.872;2023-05-07T07:18:38;41.70;38.60
18575;DHT22;9417;16.484;102.872;2023-05-07T07:20:48;41.70;38.40
18575;DHT22;9417;16.484;102.872;2023-05-07T07:22:55;41.80;38.20
18575;DHT22;9417;16.484;102.872;2023-05-07T07:25:03;41.70;38.10
18575;DHT22;9417;16.484;102.872;2023-05-07T07:27:10;41.70;37.90
18575;DHT22;9417;16.484;102.872;2023-05-07T07:29:17;41.70;37.90
18575;DHT22;9417;16.484;102.872;2023-05-07T07:31:25;41.60;38.10
18575;DHT22;9417;16.484;102.872;2023-05-07T07:33:32;41.60;38.30
18575;DHT22;9417;16.484;102.872;2023-05-07T07:35:39;41.60;38.30
18575;DHT22;9417;16.484;102.872;2023-05-07T07:37:48;41.50;37.70
18575;DHT22;9417;16.484;102.872;2023-05-07T07:39:56;41.50;37.60
18575;DHT22;9417;16.484;102.872;2023-05-07T07:42:03;41.50;38.00
18575;DHT22;9417;16.484;102.872;2023-05-07T07:44:10;41.40;37.90
18575;DHT22;9417;16.484;102.872;2023-05-07T07:46:25;41.30;38.30
18575;DHT22;9417;16.484;102.872;2023-05-07T07:48:33;41.20;38.70
18575;DHT22;9417;16.484;102.872;2023-05-07T07:50:40;41.00;39.00
18575;DHT22;9417;16.484;102.872;2023-05-07T07:52:53;40.90;39.00
18575;DHT22;9417;16.484;102.872;2023-05-07T07:55:01;40.80;39.10
18575;DHT22;9417;16.484;102.872;2023-05-07T07:57:09;40.90;39.30
18575;DHT22;9417;16.484;102.872;2023-05-07T07:59:17;41.00;39.20
18575;DHT22;9417;16.484;102.872;2023-05-07T08:01:26;41.10;39.20
18575;DHT22;9417;16.484;102.872;2023-05-07T08:03:34;41.20;39.20
18575;DHT22;9417;16.484;102.872;2023-05-07T08:05:42;41.20;39.30
18575;DHT22;9417;16.484;102.872;2023-05-07T08:07:51;41.30;39.00
18575;DHT22;9417;16.484;102.872;2023-05-07T08:10:14;41.40;38.40
18575;DHT22;9417;16.484;102.872;2023-05-07T08:12:32;41.40;38.60
18575;DHT22;9417;16.484;102.872;2023-05-07T08:14:39;41.40;38.50
18575;DHT22;9417;16.484;102.872;2023-05-07T08:16:47;41.50;38.60
18575;DHT22;9417;16.484;102.872;2023-05-07T08:18:54;41.50;38.80
18575;DHT22;9417;16.484;102.872;2023-05-07T08:21:02;41.50;38.40
18575;DHT22;9417;16.484;102.872;2023-05-07T08:23:11;41.50;37.90
18575;DHT22;9417;16.484;102.872;2023-05-07T08:25:19;41.40;37.90
18575;DHT22;9417;16.484;102.872;2023-05-07T08:27:26;41.40;37.80
18575;DHT22;9417;16.484;102.872;2023-05-07T08:29:37;41.50;38.10
18575;DHT22;9417;16.484;102.872;2023-05-07T08:31:44;41.50;37.70
18575;DHT22;9417;16.484;102.872;2023-05-07T08:33:51;41.30;38.00
18575;DHT22;9417;16.484;102.872;2023-05-07T08:35:58;41.20;38.30
18575;DHT22;9417;16.484;102.872;2023-05-07T08:38:05;41.00;38.40
18575;DHT22;9417;16.484;102.872;2023-05-07T08:40:15;41.00;38.20
18575;DHT22;9417;16.484;102.872;2023-05-07T08:42:24;41.00;37.90
18575;DHT22;9417;16.484;102.872;2023-05-07T08:44:34;41.00;38.00
18575;DHT22;9417;16.484;102.872;2023-05-07T08:46:42;41.00;38.20
18575;DHT22;9417;16.484;102.872;2023-05-07T08:48:53;41.00;38.40
18575;DHT22;9417;16.484;102.872;2023-05-07T08:51:01;41.10;38.40
18575;DHT22;9417;16.484;102.872;2023-05-07T08:53:08;41.10;38.30
18575;DHT22;9417;16.484;102.872;2023-05-07T08:55:18;41.10;38.20
18575;DHT22;9417;16.484;102.872;2023-05-07T08:57:25;41.10;38.30
18575;DHT22;9417;16.484;102.872;2023-05-07T08:59:32;41.10;38.40
18575;DHT22;9417;16.484;102.872;2023-05-07T09:01:41;41.10;38.30
18575;DHT22;9417;16.484;102.872;2023-05-07T09:03:49;41.10;38.50
18575;DHT22;9417;16.484;102.872;2023-05-07T09:05:57;41.00;38.10
18575;DHT22;9417;16.484;102.872;2023-05-07T09:08:07;41.00;37.90
18575;DHT22;9417;16.484;102.872;2023-05-07T09:10:16;40.90;37.90
18575;DHT22;9417;16.484;102.872;2023-05-07T09:12:23;40.80;38.10
18575;DHT22;9417;16.484;102.872;2023-05-07T09:14:39;40.70;37.90
18575;DHT22;9417;16.484;102.872;2023-05-07T09:16:47;40.70;37.60
18575;DHT22;9417;16.484;102.872;2023-05-07T09:18:54;40.80;37.20
18575;DHT22;9417;16.484;102.872;2023-05-07T09:21:02;40.80;37.20
18575;DHT22;9417;16.484;102.872;2023-05-07T09:23:09;40.80;37.40
18575;DHT22;9417;16.484;102.872;2023-05-07T09:25:28;40.90;37.80
18575;DHT22;9417;16.484;102.872;2023-05-07T09:27:42;40.90;38.00
18575;DHT22;9417;16.484;102.872;2023-05-07T09:29:50;40.80;38.10
18575;DHT22;9417;16.484;102.872;2023-05-07T09:31:58;40.80;38.20
18575;DHT22;9417;16.484;102.872;2023-05-07T09:34:05;40.80;38.10
18575;DHT22;9417;16.484;102.872;2023-05-07T09:36:15;40.80;37.90
18575;DHT22;9417;16.484;102.872;2023-05-07T09:38:23;40.70;37.60
18575;DHT22;9417;16.484;102.872;2023-05-07T09:40:36;40.60;38.10
18575;DHT22;9417;16.484;102.872;2023-05-07T09:42:48;40.60;38.30
18575;DHT22;9417;16.484;102.872;2023-05-07T09:44:56;40.60;38.40
18575;DHT22;9417;16.484;102.872;2023-05-07T09:47:12;40.50;38.40
18575;DHT22;9417;16.484;102.872;2023-05-07T09:49:24;40.40;38.30
18575;DHT22;9417;16.484;102.872;2023-05-07T09:51:41;40.30;38.60
18575;DHT22;9417;16.484;102.872;2023-05-07T09:53:51;40.10;38.70
18575;DHT22;9417;16.484;102.872;2023-05-07T09:56:01;40.00;39.20
18575;DHT22;9417;16.484;102.872;2023-05-07T09:58:11;39.90;39.60
18575;DHT22;9417;16.484;102.872;2023-05-07T10:00:22;39.80;40.00
18575;DHT22;9417;16.484;102.872;2023-05-07T10:02:37;39.70;40.20
18575;DHT22;9417;16.484;102.872;2023-05-07T10:04:53;39.60;40.50
18575;DHT22;9417;16.484;102.872;2023-05-07T10:07:05;39.50;40.80
18575;DHT22;9417;16.484;102.872;2023-05-07T10:09:14;39.40;41.20
18575;DHT22;9417;16.484;102.872;2023-05-07T10:11:23;39.40;41.50
18575;DHT22;9417;16.484;102.872;2023-05-07T10:13:32;39.20;42.50
18575;DHT22;9417;16.484;102.872;2023-05-07T10:15:42;39.00;42.80
18575;DHT22;9417;16.484;102.872;2023-05-07T10:17:50;38.90;43.10
18575;DHT22;9417;16.484;102.872;2023-05-07T10:19:59;38.80;43.50
18575;DHT22;9417;16.484;102.872;2023-05-07T10:22:09;38.70;43.30
18575;DHT22;9417;16.484;102.872;2023-05-07T10:24:22;38.60;43.30
18575;DHT22;9417;16.484;102.872;2023-05-07T10:26:35;38.60;43.30
18575;DHT22;9417;16.484;102.872;2023-05-07T10:28:45;38.50;43.70
18575;DHT22;9417;16.484;102.872;2023-05-07T10:31:03;38.40;44.20
18575;DHT22;9417;16.484;102.872;2023-05-07T10:33:22;38.40;45.70
18575;DHT22;9417;16.484;102.872;2023-05-07T10:35:32;38.30;46.10
18575;DHT22;9417;16.484;102.872;2023-05-07T10:37:44;38.20;45.70
18575;DHT22;9417;16.484;102.872;2023-05-07T10:39:52;38.10;45.00
18575;DHT22;9417;16.484;102.872;2023-05-07T10:42:10;38.00;45.00
18575;DHT22;9417;16.484;102.872;2023-05-07T10:44:26;37.90;45.30
18575;DHT22;9417;16.484;102.872;2023-05-07T10:46:41;37.90;45.10
18575;DHT22;9417;16.484;102.872;2023-05-07T10:49:11;37.90;45.50
18575;DHT22;9417;16.484;102.872;2023-05-07T10:51:27;37.70;50.40
18575;DHT22;9417;16.484;102.872;2023-05-07T10:53:42;37.60;49.40
18575;DHT22;9417;16.484;102.872;2023-05-07T10:56:26;37.50;49.80
18575;DHT22;9417;16.484;102.872;2023-05-07T10:58:45;37.20;49.60
18575;DHT22;9417;16.484;102.872;2023-05-07T11:01:02;37.10;49.50
18575;DHT22;9417;16.484;102.872;2023-05-07T11:03:14;36.90;49.90
18575;DHT22;9417;16.484;102.872;2023-05-07T11:05:30;36.90;50.30
18575;DHT22;9417;16.484;102.872;2023-05-07T11:08:02;36.90;50.70
18575;DHT22;9417;16.484;102.872;2023-05-07T11:10:18;36.80;50.50
18575;DHT22;9417;16.484;102.872;2023-05-07T11:15:40;36.70;49.50
18575;DHT22;9417;16.484;102.872;2023-05-07T11:18:06;36.70;49.10
18575;DHT22;9417;16.484;102.872;2023-05-07T11:20:15;36.70;48.50
18575;DHT22;9417;16.484;102.872;2023-05-07T11:22:39;36.70;47.90
18575;DHT22;9417;16.484;102.872;2023-05-07T11:25:03;36.70;47.30
18575;DHT22;9417;16.484;102.872;2023-05-07T11:27:12;36.60;50.40
18575;DHT22;9417;16.484;102.872;2023-05-07T11:29:21;36.50;51.50
18575;DHT22;9417;16.484;102.872;2023-05-07T11:31:35;36.50;50.20
18575;DHT22;9417;16.484;102.872;2023-05-07T11:33:44;36.50;49.30
18575;DHT22;9417;16.484;102.872;2023-05-07T11:35:54;36.40;50.00
18575;DHT22;9417;16.484;102.872;2023-05-07T11:38:07;36.40;51.50
18575;DHT22;9417;16.484;102.872;2023-05-07T11:40:17;36.30;51.30
18575;DHT22;9417;16.484;102.872;2023-05-07T11:42:29;36.20;52.90
18575;DHT22;9417;16.484;102.872;2023-05-07T11:44:43;36.10;53.30
18575;DHT22;9417;16.484;102.872;2023-05-07T11:46:53;35.90;53.90
18575;DHT22;9417;16.484;102.872;2023-05-07T11:49:03;35.90;54.60
18575;DHT22;9417;16.484;102.872;2023-05-07T11:51:11;35.90;54.30
18575;DHT22;9417;16.484;102.872;2023-05-07T11:53:18;35.80;51.90
18575;DHT22;9417;16.484;102.872;2023-05-07T11:55:25;35.80;50.90
18575;DHT22;9417;16.484;102.872;2023-05-07T11:57:36;35.80;51.10
18575;DHT22;9417;16.484;102.872;2023-05-07T11:59:43;35.90;51.40
18575;DHT22;9417;16.484;102.872;2023-05-07T12:01:57;35.90;51.60
18575;DHT22;9417;16.484;102.872;2023-05-07T12:04:05;35.90;51.00
18575;DHT22;9417;16.484;102.872;2023-05-07T12:06:13;36.00;50.60
18575;DHT22;9417;16.484;102.872;2023-05-07T12:08:21;36.00;50.10
18575;DHT22;9417;16.484;102.872;2023-05-07T12:10:28;36.10;50.00
18575;DHT22;9417;16.484;102.872;2023-05-07T12:12:39;36.10;49.80
18575;DHT22;9417;16.484;102.872;2023-05-07T12:14:48;36.10;49.80
18575;DHT22;9417;16.484;102.872;2023-05-07T12:16:57;36.20;49.90
18575;DHT22;9417;16.484;102.872;2023-05-07T12:19:05;36.20;49.60
18575;DHT22;9417;16.484;102.872;2023-05-07T12:21:13;36.20;49.40
18575;DHT22;9417;16.484;102.872;2023-05-07T12:23:22;36.20;49.40
18575;DHT22;9417;16.484;102.872;2023-05-07T12:25:31;36.20;49.40
18575;DHT22;9417;16.484;102.872;2023-05-07T12:27:40;36.20;49.30
18575;DHT22;9417;16.484;102.872;2023-05-07T12:29:48;36.20;49.10
18575;DHT22;9417;16.484;102.872;2023-05-07T12:31:56;36.20;48.90
18575;DHT22;9417;16.484;102.872;2023-05-07T12:34:03;36.20;48.90
18575;DHT22;9417;16.484;102.872;2023-05-07T12:36:13;36.20;48.70
18575;DHT22;9417;16.484;102.872;2023-05-07T12:38:20;36.20;48.80
18575;DHT22;9417;16.484;102.872;2023-05-07T12:40:36;36.10;48.90
18575;DHT22;9417;16.484;102.872;2023-05-07T12:42:44;36.10;49.00
18575;DHT22;9417;16.484;102.872;2023-05-07T12:44:51;36.10;48.90
18575;DHT22;9417;16.484;102.872;2023-05-07T12:47:02;36.10;49.10
18575;DHT22;9417;16.484;102.872;2023-05-07T12:49:09;36.10;49.10
18575;DHT22;9417;16.484;102.872;2023-05-07T12:51:16;36.00;49.10
18575;DHT22;9417;16.484;102.872;2023-05-07T12:53:25;36.00;48.80
18575;DHT22;9417;16.484;102.872;2023-05-07T12:55:32;36.00;48.90
18575;DHT22;9417;16.484;102.872;2023-05-07T12:57:48;36.00;48.80
18575;DHT22;9417;16.484;102.872;2023-05-07T13:00:01;36.00;48.90
18575;DHT22;9417;16.484;102.872;2023-05-07T13:02:11;36.00;49.00
18575;DHT22;9417;16.484;102.872;2023-05-07T13:04:18;36.00;49.00
18575;DHT22;9417;16.484;102.872;2023-05-07T13:06:25;35.90;49.10
18575;DHT22;9417;16.484;102.872;2023-05-07T13:08:34;35.90;49.20
18575;DHT22;9417;16.484;102.872;2023-05-07T13:10:41;35.90;49.30
18575;DHT22;9417;16.484;102.872;2023-05-07T13:12:48;35.90;49.50
18575;DHT22;9417;16.484;102.872;2023-05-07T13:14:55;35.90;49.70
18575;DHT22;9417;16.484;102.872;2023-05-07T13:17:03;35.80;49.80
18575;DHT22;9417;16.484;102.872;2023-05-07T13:19:12;35.80;50.10
18575;DHT22;9417;16.484;102.872;2023-05-07T13:21:19;35.80;50.40
18575;DHT22;9417;16.484;102.872;2023-05-07T13:23:28;35.70;50.60
18575;DHT22;9417;16.484;102.872;2023-05-07T13:25:35;35.70;51.00
18575;DHT22;9417;16.484;102.872;2023-05-07T13:27:42;35.60;51.40
18575;DHT22;9417;16.484;102.872;2023-05-07T13:29:59;35.60;51.70
18575;DHT22;9417;16.484;102.872;2023-05-07T13:32:19;35.60;52.00